createdAt,value
2019-02-22T00:02:40.692Z,6.4
2019-02-22T00:06:10.696Z,6.41
2019-02-22T00:09:49.092Z,6.43
2019-02-22T00:13:21.049Z,6.44
2019-02-22T00:16:51.103Z,6.46
2019-02-22T00:20:21.174Z,6.46
2019-02-22T00:23:51.276Z,6.57
2019-02-22T00:27:21.418Z,6.69
2019-02-22T00:30:51.460Z,6.75
2019-02-22T00:34:21.735Z,6.84
2019-02-22T00:37:51.905Z,6.95
2019-02-22T00:41:21.967Z,7.09
2019-02-22T00:44:52.119Z,7.2
2019-02-22T00:48:22.131Z,7.3
2019-02-22T00:51:52.223Z,7.38
2019-02-22T00:55:22.500Z,7.53
2019-02-22T00:58:52.521Z,7.62
2019-02-22T01:02:22.550Z,7.73
2019-02-22T01:05:52.574Z,7.73
2019-02-22T01:09:22.725Z,7.44
2019-02-22T01:12:52.799Z,7.04
2019-02-22T01:16:23.889Z,6.72
2019-02-22T01:19:53.914Z,6.66
2019-02-22T01:23:23.987Z,6.61
2019-02-22T01:26:54.026Z,6.56
2019-02-22T01:30:24.068Z,6.49
2019-02-22T01:33:54.337Z,6.46
2019-02-22T01:37:24.423Z,6.31
2019-02-22T01:40:54.515Z,6.23
2019-02-22T01:44:24.597Z,6.2
2019-02-22T01:47:54.624Z,6.17
2019-02-22T01:51:24.678Z,6.14
2019-02-22T01:54:54.685Z,6.15
2019-02-22T01:58:24.799Z,6.09
2019-02-22T02:00:16.200Z,6.07
2019-02-22T02:03:46.259Z,6.08
2019-02-22T02:07:16.291Z,6.11
2019-02-22T02:10:53.926Z,6.03
2019-02-22T02:14:24.566Z,5.96
2019-02-22T02:17:55.747Z,5.87
2019-02-22T02:21:25.880Z,5.88
2019-02-22T02:24:55.982Z,5.94
2019-02-22T02:28:26.144Z,5.93
2019-02-22T02:31:56.167Z,5.94
2019-02-22T02:35:26.169Z,6.09
2019-02-22T02:38:56.254Z,6.33
2019-02-22T02:42:26.373Z,6.57
2019-02-22T02:45:56.415Z,6.71
2019-02-22T02:49:26.462Z,6.85
2019-02-22T02:52:56.490Z,6.91
2019-02-22T02:56:26.592Z,7.06
2019-02-22T02:59:56.755Z,6.97
2019-02-22T03:03:26.727Z,6.83
2019-02-22T03:07:05.698Z,6.83
2019-02-22T03:10:35.712Z,6.97
2019-02-22T03:14:05.843Z,6.89
2019-02-22T03:17:35.965Z,6.65
2019-02-22T03:21:07.058Z,6.57
2019-02-22T03:24:37.310Z,6.61
2019-02-22T03:28:07.459Z,6.64
2019-02-22T03:31:37.439Z,6.74
2019-02-22T03:35:07.526Z,6.88
2019-02-22T03:38:37.589Z,6.99
2019-02-22T03:42:07.772Z,7.16
2019-02-22T03:45:37.933Z,7.22
2019-02-22T03:49:08.099Z,7.21
2019-02-22T03:52:43.425Z,7.23
2019-02-22T03:56:13.580Z,7.21
2019-02-22T03:59:43.623Z,7.12
2019-02-22T04:00:16.222Z,7.1
2019-02-22T04:03:46.424Z,7.07
2019-02-22T04:07:16.408Z,6.95
2019-02-22T04:10:46.471Z,6.84
2019-02-22T04:14:16.514Z,6.9
2019-02-22T04:17:46.553Z,6.9
2019-02-22T04:21:17.506Z,6.98
2019-02-22T04:24:47.608Z,7.02
2019-02-22T04:28:17.630Z,7.02
2019-02-22T04:31:47.691Z,7
2019-02-22T04:35:17.784Z,6.99
2019-02-22T04:38:47.836Z,7.03
2019-02-22T04:42:17.916Z,6.97
2019-02-22T04:45:48.011Z,6.87
2019-02-22T04:49:18.054Z,6.76
2019-02-22T04:52:48.205Z,6.76
2019-02-22T04:56:18.218Z,6.76
2019-02-22T04:59:48.229Z,6.81
2019-02-22T05:03:18.326Z,6.82
2019-02-22T05:06:48.375Z,6.69
2019-02-22T05:10:18.447Z,6.69
2019-02-22T05:13:48.638Z,6.71
2019-02-22T05:17:18.642Z,6.69
2019-02-22T05:20:48.702Z,6.74
2019-02-22T05:24:19.746Z,6.82
2019-02-22T05:27:49.980Z,6.87
2019-02-22T05:31:20.065Z,7.01
2019-02-22T05:34:50.141Z,7.09
2019-02-22T05:38:20.094Z,7.08
2019-02-22T05:41:50.177Z,7.05
2019-02-22T05:45:20.218Z,7.1
2019-02-22T05:48:50.281Z,7.17
2019-02-22T05:52:20.263Z,7.29
2019-02-22T05:55:50.245Z,7.25
2019-02-22T05:59:20.278Z,7.29
2019-02-22T06:00:17.201Z,7.34
2019-02-22T06:03:47.540Z,7.32
2019-02-22T06:07:17.687Z,7.32
2019-02-22T06:10:47.714Z,7.35
2019-02-22T06:14:17.746Z,7.44
2019-02-22T06:17:48.101Z,7.44
2019-02-22T06:21:18.081Z,7.54
2019-02-22T06:24:48.390Z,7.57
2019-02-22T06:28:18.508Z,7.51
2019-02-22T06:31:48.574Z,7.65
2019-02-22T06:35:18.711Z,7.73
2019-02-22T06:38:48.716Z,7.75
2019-02-22T06:42:18.635Z,7.81
2019-02-22T06:45:48.721Z,7.99
2019-02-22T06:49:18.841Z,8.08
2019-02-22T06:52:48.901Z,8.2
2019-02-22T06:56:18.924Z,8.42
2019-02-22T06:59:49.005Z,8.47
2019-02-22T07:03:19.085Z,8.34
2019-02-22T07:06:49.190Z,8.5
2019-02-22T07:10:19.278Z,8.66
2019-02-22T07:13:49.268Z,8.77
2019-02-22T07:17:19.317Z,8.86
2019-02-22T07:20:49.319Z,8.78
2019-02-22T07:24:19.422Z,8.88
2019-02-22T07:27:50.606Z,8.89
2019-02-22T07:31:20.746Z,8.99
2019-02-22T07:34:50.919Z,9.21
2019-02-22T07:38:20.958Z,9.38
2019-02-22T07:41:50.994Z,9.39
2019-02-22T07:45:21.136Z,9.72
2019-02-22T07:48:51.240Z,10.01
2019-02-22T07:52:21.340Z,9.95
2019-02-22T07:55:51.423Z,10.08
2019-02-22T07:59:21.446Z,10.01
2019-02-22T08:00:16.727Z,10.03
2019-02-22T08:03:47.150Z,9.99
2019-02-22T08:07:17.441Z,9.94
2019-02-22T08:10:47.569Z,9.9
2019-02-22T08:14:17.652Z,9.82
2019-02-22T08:17:47.818Z,9.91
2019-02-22T08:21:17.839Z,10.09
2019-02-22T08:24:47.984Z,10.23
2019-02-22T08:28:19.217Z,10.42
2019-02-22T08:31:49.326Z,10.56
2019-02-22T08:35:19.422Z,10.61
2019-02-22T08:38:49.413Z,10.74
2019-02-22T08:42:19.494Z,10.99
2019-02-22T08:45:49.611Z,11.25
2019-02-22T08:49:19.639Z,11.36
2019-02-22T08:52:49.653Z,11.51
2019-02-22T08:56:19.645Z,11.42
2019-02-22T08:59:49.758Z,11.52
2019-02-22T09:03:19.745Z,11.83
2019-02-22T09:06:52.342Z,11.97
2019-02-22T09:10:22.554Z,12.26
2019-02-22T09:13:52.713Z,12.55
2019-02-22T09:17:22.969Z,12.7
2019-02-22T09:20:53.095Z,12.69
2019-02-22T09:24:23.225Z,12.77
2019-02-22T09:27:53.327Z,12.59
2019-02-22T09:31:23.469Z,12.59
2019-02-22T09:34:53.569Z,12.46
2019-02-22T09:38:23.718Z,12.44
2019-02-22T09:41:53.777Z,12.56
2019-02-22T09:45:24.688Z,12.44
2019-02-22T09:48:54.922Z,12.61
2019-02-22T09:52:24.995Z,12.69
2019-02-22T09:55:55.307Z,12.39
2019-02-22T09:59:25.319Z,12
2019-02-22T10:00:16.970Z,11.97
2019-02-22T10:03:47.073Z,12.1
2019-02-22T10:07:17.185Z,12.57
2019-02-22T10:10:47.307Z,12.94
2019-02-22T10:14:17.420Z,13.22
2019-02-22T10:17:47.563Z,13.44
2019-02-22T10:21:17.615Z,13.08
2019-02-22T10:24:48.034Z,13.05
2019-02-22T10:28:18.297Z,12.86
2019-02-22T10:31:49.437Z,12.78
2019-02-22T10:35:19.397Z,12.91
2019-02-22T10:38:49.600Z,12.44
2019-02-22T10:42:19.630Z,12.46
2019-02-22T10:45:49.775Z,11.96
2019-02-22T10:49:19.856Z,11.42
2019-02-22T10:52:49.928Z,11.33
2019-02-22T10:56:20.030Z,11.12
2019-02-22T10:59:50.230Z,10.9
2019-02-22T11:03:20.295Z,10.7
2019-02-22T11:06:50.467Z,10.81
2019-02-22T11:10:20.510Z,11.08
2019-02-22T11:13:50.662Z,11.18
2019-02-22T11:17:20.659Z,11.07
2019-02-22T11:20:50.728Z,10.99
2019-02-22T11:24:20.954Z,10.83
2019-02-22T11:27:51.096Z,10.97
2019-02-22T11:31:21.160Z,10.91
2019-02-22T11:34:51.361Z,10.99
2019-02-22T11:38:21.510Z,10.85
2019-02-22T11:41:51.548Z,10.84
2019-02-22T11:45:21.707Z,10.62
2019-02-22T11:48:51.726Z,10.56
2019-02-22T11:52:21.817Z,10.16
2019-02-22T11:55:52.060Z,9.98
2019-02-22T11:59:22.050Z,9.85
2019-02-22T12:00:18.210Z,9.82
2019-02-22T12:03:48.343Z,9.53
2019-02-22T12:07:18.375Z,9.53
2019-02-22T12:10:48.560Z,9.44
2019-02-22T12:14:18.775Z,9.54
2019-02-22T12:17:48.866Z,9.52
2019-02-22T12:21:18.940Z,9.64
2019-02-22T12:24:48.988Z,9.59
2019-02-22T12:28:19.102Z,9.74
2019-02-22T12:31:49.321Z,9.76
2019-02-22T12:35:19.492Z,9.75
2019-02-22T12:38:49.633Z,9.87
2019-02-22T12:42:19.675Z,9.82
2019-02-22T12:45:49.797Z,9.9
2019-02-22T12:49:19.807Z,9.83
2019-02-22T12:52:49.908Z,10.06
2019-02-22T12:56:21.583Z,10.1
2019-02-22T13:00:02.472Z,10.04
2019-02-22T13:03:32.522Z,10.18
2019-02-22T13:07:02.653Z,10.31
2019-02-22T13:10:32.730Z,10.34
2019-02-22T13:14:02.994Z,10.28
2019-02-22T13:17:33.060Z,10.28
2019-02-22T13:21:03.229Z,10.29
2019-02-22T13:24:33.317Z,10.19
2019-02-22T13:28:03.417Z,10.08
2019-02-22T13:31:33.506Z,10.28
2019-02-22T13:35:04.045Z,10.48
2019-02-22T13:38:35.005Z,10.62
2019-02-22T13:42:05.120Z,10.66
2019-02-22T13:45:35.302Z,10.52
2019-02-22T13:49:05.817Z,10.51
2019-02-22T13:52:35.901Z,10.39
2019-02-22T13:56:06.064Z,10.38
2019-02-22T13:59:36.059Z,10.38
2019-02-22T14:00:16.484Z,10.38
2019-02-22T14:03:46.594Z,10.41
2019-02-22T14:07:16.628Z,10.26
2019-02-22T14:10:46.677Z,10.14
2019-02-22T14:14:16.826Z,9.94
2019-02-22T14:17:47.037Z,9.86
2019-02-22T14:21:17.053Z,9.81
2019-02-22T14:24:47.104Z,9.62
2019-02-22T14:28:17.073Z,9.66
2019-02-22T14:31:47.193Z,9.61
2019-02-22T14:35:17.335Z,9.56
2019-02-22T14:38:48.440Z,9.44
2019-02-22T14:42:18.697Z,9.44
2019-02-22T14:45:52.197Z,9.35
2019-02-22T14:49:23.165Z,9.31
2019-02-22T14:52:53.338Z,9.22
2019-02-22T14:56:23.541Z,8.95
2019-02-22T14:59:53.714Z,8.69
2019-02-22T15:03:23.769Z,8.31
2019-02-22T15:06:53.910Z,7.99
2019-02-22T15:10:23.903Z,7.78
2019-02-22T15:13:53.957Z,7.61
2019-02-22T15:17:30.760Z,7.34
2019-02-22T15:21:00.933Z,7.13
2019-02-22T15:24:32.969Z,7.01
2019-02-22T15:28:03.249Z,6.96
2019-02-22T15:31:36.086Z,6.83
2019-02-22T15:35:09.170Z,6.81
2019-02-22T15:38:39.138Z,6.8
2019-02-22T15:42:10.177Z,6.74
2019-02-22T15:45:40.313Z,6.61
2019-02-22T15:49:10.469Z,6.6
2019-02-22T15:52:40.613Z,6.53
2019-02-22T15:56:10.560Z,6.47
2019-02-22T15:59:40.717Z,6.41
2019-02-22T16:00:19.801Z,6.41
2019-02-22T16:03:54.135Z,6.38
2019-02-22T16:07:24.321Z,6.29
2019-02-22T16:10:54.500Z,6.28
2019-02-22T16:14:24.495Z,6.18
2019-02-22T16:17:54.602Z,6.21
2019-02-22T16:21:24.659Z,6.14
2019-02-22T16:24:54.756Z,6.12
2019-02-22T16:28:24.743Z,6
2019-02-22T16:31:54.850Z,5.94
2019-02-22T16:35:24.927Z,5.8
2019-02-22T16:38:55.078Z,5.66
2019-02-22T16:42:26.131Z,5.59
2019-02-22T16:45:56.148Z,5.51
2019-02-22T16:49:26.145Z,5.4
2019-02-22T16:52:56.233Z,5.34
2019-02-22T16:56:26.320Z,5.22
2019-02-22T16:59:56.366Z,5.14
2019-02-22T17:03:26.423Z,5.13
2019-02-22T17:06:56.490Z,5.03
2019-02-22T17:10:26.477Z,5.08
2019-02-22T17:13:56.551Z,4.94
2019-02-22T17:17:26.451Z,4.93
2019-02-22T17:20:56.528Z,4.95
2019-02-22T17:24:26.531Z,4.97
2019-02-22T17:27:56.574Z,4.96
2019-02-22T17:31:26.579Z,4.84
2019-02-22T17:34:56.644Z,4.75
2019-02-22T17:38:26.713Z,4.65
2019-02-22T17:41:56.890Z,4.37
2019-02-22T17:45:27.910Z,4.18
2019-02-22T17:48:57.974Z,3.95
2019-02-22T17:52:28.011Z,3.8
2019-02-22T17:55:58.097Z,3.65
2019-02-22T17:59:28.115Z,3.49
2019-02-22T18:00:17.829Z,3.4
2019-02-22T18:03:47.892Z,3.39
2019-02-22T18:07:17.889Z,3.36
2019-02-22T18:10:48.131Z,3.26
2019-02-22T18:14:18.292Z,3.33
2019-02-22T18:17:48.449Z,3.26
2019-02-22T18:21:18.566Z,3.31
2019-02-22T18:24:48.663Z,3.23
2019-02-22T18:28:18.774Z,3.06
2019-02-22T18:31:49.007Z,2.93
2019-02-22T18:35:18.990Z,2.63
2019-02-22T18:38:49.060Z,2.44
2019-02-22T18:42:19.037Z,2.5
2019-02-22T18:45:50.064Z,2.27
2019-02-22T18:49:20.110Z,1.95
2019-02-22T18:52:50.118Z,1.81
2019-02-22T18:56:20.139Z,1.63
2019-02-22T18:59:50.181Z,1.6
2019-02-22T19:03:20.189Z,1.58
2019-02-22T19:06:50.576Z,1.41
2019-02-22T19:10:20.702Z,1.35
2019-02-22T19:13:50.704Z,1.19
2019-02-22T19:17:30.036Z,1.13
2019-02-22T19:21:00.577Z,1.02
2019-02-22T19:24:38.931Z,0.94
2019-02-22T19:28:09.064Z,1.04
2019-02-22T19:31:39.035Z,1.07
2019-02-22T19:35:09.136Z,1
2019-02-22T19:38:39.261Z,1.1
2019-02-22T19:42:09.753Z,1.16
2019-02-22T19:43:42.667Z,0.9
2019-02-22T19:47:13.672Z,0.95
2019-02-22T19:50:43.580Z,0.99
2019-02-22T19:54:13.631Z,1
2019-02-22T19:57:54.854Z,0.94
2019-02-22T20:00:15.883Z,0.91
2019-02-22T20:03:45.890Z,0.79
2019-02-22T20:07:16.069Z,0.97
2019-02-22T20:10:46.046Z,0.93
2019-02-22T20:14:16.107Z,1.05
2019-02-22T20:17:54.301Z,1.11
2019-02-22T20:21:25.044Z,1.12
2019-02-22T20:24:55.054Z,0.83
2019-02-22T20:28:25.184Z,0.72
2019-02-22T20:31:55.173Z,0.73
2019-02-22T20:35:25.309Z,0.61
2019-02-22T20:38:55.409Z,0.5
2019-02-22T20:42:25.498Z,0.51
2019-02-22T20:45:55.603Z,0.46
2019-02-22T20:49:26.635Z,0.39
2019-02-22T20:52:56.634Z,0.27
2019-02-22T20:56:26.593Z,0.11
2019-02-22T20:59:56.571Z,0.16
2019-02-22T21:03:26.670Z,0.11
2019-02-22T21:06:56.639Z,0.07
2019-02-22T21:10:26.707Z,0.01
2019-02-22T21:13:56.725Z,-0.15
2019-02-22T21:17:26.785Z,-0.34
2019-02-22T21:20:56.832Z,-0.35
2019-02-22T21:24:27.001Z,-0.38
2019-02-22T21:27:56.985Z,-0.41
2019-02-22T21:31:27.200Z,-0.51
2019-02-22T21:34:57.397Z,-0.62
2019-02-22T21:38:27.514Z,-0.7
2019-02-22T21:41:57.571Z,-0.82
2019-02-22T21:45:27.641Z,-0.94
2019-02-22T21:48:57.620Z,-1.13
2019-02-22T21:52:27.789Z,-1.32
2019-02-22T21:55:57.838Z,-1.31
2019-02-22T21:59:28.056Z,-1.28
2019-02-22T22:00:16.646Z,-1.28
2019-02-22T22:03:46.674Z,-1.34
2019-02-22T22:07:16.802Z,-1.27
2019-02-22T22:10:46.861Z,-1.43
2019-02-22T22:14:17.009Z,-1.42
2019-02-22T22:17:47.167Z,-1.56
2019-02-22T22:21:17.196Z,-1.76
2019-02-22T22:24:47.215Z,-1.73
2019-02-22T22:28:17.474Z,-1.81
2019-02-22T22:31:47.563Z,-1.99
2019-02-22T22:35:17.779Z,-1.9
2019-02-22T22:38:47.712Z,-1.87
2019-02-22T22:42:17.839Z,-1.98
2019-02-22T22:45:47.810Z,-2.11
2019-02-22T22:49:17.955Z,-2.15
2019-02-22T22:52:49.038Z,-2.31
2019-02-22T22:56:19.016Z,-2.21
2019-02-22T22:59:49.009Z,-2.39
2019-02-22T23:03:19.390Z,-2.42
2019-02-22T23:06:49.395Z,-2.53
2019-02-22T23:10:19.727Z,-2.59
2019-02-22T23:13:49.711Z,-2.81
2019-02-22T23:17:19.801Z,-2.74
2019-02-22T23:20:49.921Z,-2.9
2019-02-22T23:24:20.026Z,-2.98
2019-02-22T23:27:50.072Z,-3.03
2019-02-22T23:31:20.142Z,-3
2019-02-22T23:34:50.174Z,-3.07
2019-02-22T23:38:20.265Z,-3.04
2019-02-22T23:41:50.247Z,-3.06
2019-02-22T23:45:20.429Z,-3.1
2019-02-22T23:48:50.472Z,-3.23
2019-02-22T23:52:20.495Z,-3.22
2019-02-22T23:55:51.413Z,-3.31
2019-02-22T23:59:21.426Z,-3.39
